Terminal Aerodrome Forecast
Issued by NWS

Home | Current Version | Previous Version | Text Only | Print | Product List | Glossary On
Versions: 1 2 3 4 5 6 7 8 9 10 11 12 13 14 15 16 17 18 19
000
FTUS43 KDLH 201100 RRA
TAFHIB
TAF
KHIB 201143Z 2012/2112 16004KT 3SM -SN BR OVC005
      TEMPO 2012/2016 2SM -SN BR OVC003
     FM201600 16007KT 2SM -FZDZSN BR OVC007
     FM202100 16007KT 5SM -FZDZSN BR OVC012
     FM210200 18007KT P6SM VCSH OVC015=

USA.gov is the U.S. government's official web portal to all federal, state and local government web resources and services.